Time;durP1;ratioP1;P1;durP2;ratioP2;P2;SDS_P1;SDS_P2;PMS_P1;PMS_P2;Temp;Humidity;BMP_temperature;BMP_pressure;BME280_temperature;BME280_humidity;BME280_pressure;Samples;Min_cycle;Max_cycle;Signal;HPM_P1;HPM_P2
2024/01/18 00:01:30;;;;;;;13.13;6.03;;;;;;;4.83;60.07;99519.09;4993973;28;20130;-44
2024/01/18 00:03:55;;;;;;;12.40;6.18;;;;;;;4.87;60.21;99528.63;4994890;28;20053;-45
2024/01/18 00:06:20;;;;;;;14.32;6.55;;;;;;;4.42;62.05;99537.41;4992628;28;20378;-45
2024/01/18 00:08:46;;;;;;;17.35;7.43;;;;;;;4.65;61.83;99532.59;4993186;28;20517;-43
2024/01/18 00:11:11;;;;;;;16.02;7.10;;;;;;;4.86;61.54;99535.50;4993738;28;20039;-43
2024/01/18 00:13:37;;;;;;;15.65;6.78;;;;;;;5.02;61.33;99539.16;4993695;28;20045;-44
2024/01/18 00:16:02;;;;;;;14.25;6.25;;;;;;;4.98;61.02;99541.69;4993351;28;20078;-44
2024/01/18 00:18:28;;;;;;;15.93;6.15;;;;;;;4.97;61.58;99551.16;4993092;28;20045;-43
2024/01/18 00:20:53;;;;;;;16.73;6.38;;;;;;;5.10;61.01;99550.50;4993838;28;20058;-44
2024/01/18 00:23:18;;;;;;;21.02;6.57;;;;;;;5.21;60.81;99558.38;4993063;28;20382;-49
2024/01/18 00:25:43;;;;;;;15.18;6.45;;;;;;;5.26;60.65;99561.88;4992756;28;20061;-45
2024/01/18 00:28:10;;;;;;;16.30;6.40;;;;;;;5.28;60.45;99560.19;4992721;28;20037;-45
2024/01/18 00:30:36;;;;;;;16.70;6.57;;;;;;;5.30;60.26;99561.09;4992775;28;20039;-43
2024/01/18 00:33:02;;;;;;;12.77;6.40;;;;;;;5.21;59.79;99561.84;4991898;28;20096;-45
2024/01/18 00:35:27;;;;;;;12.73;6.20;;;;;;;5.13;60.02;99563.44;4992030;28;20680;-45
2024/01/18 00:37:52;;;;;;;12.73;5.82;;;;;;;5.04;59.36;99567.63;4993380;28;20436;-44
2024/01/18 00:40:18;;;;;;;16.63;6.35;;;;;;;4.96;59.68;99571.78;4991433;28;20038;-45
2024/01/18 00:42:43;;;;;;;12.25;5.85;;;;;;;4.85;59.77;99567.34;4993065;28;20034;-43
2024/01/18 00:45:09;;;;;;;12.07;5.88;;;;;;;4.81;59.62;99568.16;4992699;28;20030;-45
2024/01/18 00:47:34;;;;;;;14.88;5.82;;;;;;;4.69;60.21;99569.66;4993472;28;20042;-44
2024/01/18 00:49:59;;;;;;;18.35;6.50;;;;;;;4.62;59.98;99570.41;4993559;28;20462;-46
2024/01/18 00:52:25;;;;;;;16.80;6.55;;;;;;;4.58;59.66;99576.34;4992627;28;20034;-43
2024/01/18 00:54:50;;;;;;;16.30;6.90;;;;;;;4.56;59.74;99583.22;4992763;28;20038;-45
2024/01/18 00:57:15;;;;;;;15.35;6.53;;;;;;;4.52;60.10;99586.56;4992767;28;20026;-46
2024/01/18 00:59:41;;;;;;;14.10;6.55;;;;;;;4.42;59.71;99590.72;4993094;28;20130;-44
2024/01/18 01:02:06;;;;;;;16.75;6.50;;;;;;;4.33;59.62;99587.97;4994250;28;20493;-43
2024/01/18 01:04:31;;;;;;;13.80;6.72;;;;;;;4.35;60.52;99596.59;4993547;28;20045;-44
2024/01/18 01:06:57;;;;;;;14.57;6.47;;;;;;;4.31;60.51;99593.09;4992932;28;20039;-44
2024/01/18 01:09:22;;;;;;;14.40;6.28;;;;;;;4.25;60.46;99598.16;4992932;28;20058;-47
2024/01/18 01:11:47;;;;;;;18.23;6.97;;;;;;;4.23;60.47;99604.13;4993467;28;20100;-44
2024/01/18 01:14:13;;;;;;;16.45;7.10;;;;;;;4.17;60.29;99596.28;4993517;28;20041;-45
2024/01/18 01:16:38;;;;;;;15.75;6.28;;;;;;;4.11;59.95;99596.16;4991769;28;20077;-43
2024/01/18 01:19:04;;;;;;;15.63;6.85;;;;;;;4.08;60.71;99602.16;4993229;28;20049;-45
2024/01/18 01:21:29;;;;;;;16.48;7.10;;;;;;;4.01;60.27;99608.03;4992053;28;20732;-45
2024/01/18 01:23:56;;;;;;;16.00;7.03;;;;;;;3.88;60.51;99611.19;4993179;28;20030;-45
2024/01/18 01:26:21;;;;;;;19.42;7.32;;;;;;;3.98;60.98;99623.41;4993388;28;20069;-43
2024/01/18 01:28:49;;;;;;;18.77;6.78;;;;;;;4.02;61.26;99617.50;4995065;28;20054;-44
2024/01/18 01:31:14;;;;;;;15.73;6.95;;;;;;;3.94;60.82;99619.94;4993465;28;20089;-45
2024/01/18 01:33:42;;;;;;;14.23;6.65;;;;;;;3.90;60.68;99623.28;4991853;28;20022;-44
2024/01/18 01:36:07;;;;;;;14.25;6.22;;;;;;;3.85;60.49;99618.84;4991540;28;20030;-45
2024/01/18 01:38:33;;;;;;;15.02;6.20;;;;;;;3.84;60.67;99615.41;4990891;28;20584;-43
2024/01/18 01:40:59;;;;;;;16.52;6.97;;;;;;;3.83;61.13;99616.28;4992556;28;20038;-43
2024/01/18 01:43:24;;;;;;;16.60;7.05;;;;;;;3.84;60.92;99622.28;4992287;28;20103;-46
2024/01/18 01:45:49;;;;;;;13.15;6.60;;;;;;;3.80;61.09;99626.50;4991414;28;20141;-48
2024/01/18 01:48:15;;;;;;;16.85;6.72;;;;;;;3.81;61.34;99633.41;4991759;28;20065;-43
2024/01/18 01:50:41;;;;;;;13.80;6.75;;;;;;;3.79;61.83;99645.38;4991220;28;20479;-44
2024/01/18 01:53:09;;;;;;;14.07;6.78;;;;;;;3.81;61.67;99656.59;4991178;28;20564;-44
2024/01/18 01:55:36;;;;;;;13.35;5.45;;;;;;;3.64;63.46;99656.25;4990629;28;20041;-45
2024/01/18 01:58:02;;;;;;;14.90;4.72;;;;;;;3.57;64.33;99661.22;4991406;28;20034;-44
2024/01/18 02:00:27;;;;;;;10.95;3.55;;;;;;;3.39;64.37;99665.97;4991659;28;20492;-46
2024/01/18 02:02:53;;;;;;;9.70;3.88;;;;;;;3.94;62.50;99684.38;4991491;28;20034;-46
2024/01/18 02:05:19;;;;;;;9.90;2.80;;;;;;;4.35;61.77;99672.28;4990309;28;20039;-45
2024/01/18 02:07:45;;;;;;;12.40;2.60;;;;;;;4.53;61.35;99673.47;4990921;28;20517;-47
2024/01/18 02:10:11;;;;;;;7.88;2.30;;;;;;;4.61;61.58;99674.50;4991216;28;20125;-46
2024/01/18 02:12:38;;;;;;;9.32;2.30;;;;;;;4.64;61.22;99679.69;4991078;28;20073;-49
2024/01/18 02:15:05;;;;;;;9.35;1.88;;;;;;;4.52;62.17;99682.06;4990730;28;20038;-46
2024/01/18 02:17:30;;;;;;;4.35;1.23;;;;;;;4.94;62.05;99671.63;4990183;28;20046;-45
2024/01/18 02:19:56;;;;;;;5.55;1.05;;;;;;;5.16;60.98;99668.53;4990666;28;20707;-45
2024/01/18 02:22:27;;;;;;;3.78;1.17;;;;;;;5.21;60.28;99662.59;4991178;28;20034;-51
2024/01/18 02:25:06;;;;;;;2.97;1.10;;;;;;;5.16;59.74;99664.25;4989519;28;20050;-44
2024/01/18 02:27:31;;;;;;;12.98;1.23;;;;;;;5.07;59.60;99660.63;4990288;28;20152;-45
2024/01/18 02:29:56;;;;;;;3.33;1.17;;;;;;;4.91;60.13;99662.09;4990890;28;20026;-45
2024/01/18 02:32:22;;;;;;;6.22;1.23;;;;;;;4.64;62.99;99666.78;4990705;28;20038;-47
2024/01/18 02:34:47;;;;;;;7.25;1.30;;;;;;;4.78;61.05;99663.63;4990877;28;20405;-46
2024/01/18 02:37:13;;;;;;;2.85;0.95;;;;;;;4.77;60.94;99666.16;4990432;28;20117;-45
2024/01/18 02:39:38;;;;;;;3.05;0.90;;;;;;;4.67;61.01;99669.44;4989824;28;20382;-44
2024/01/18 02:42:04;;;;;;;3.30;0.90;;;;;;;4.55;60.61;99664.94;4990872;28;20473;-50
2024/01/18 02:44:31;;;;;;;3.75;0.90;;;;;;;4.46;60.46;99667.31;4990333;28;20049;-44
2024/01/18 02:46:56;;;;;;;5.43;1.00;;;;;;;4.34;60.96;99667.09;4990323;28;20035;-46
2024/01/18 02:49:21;;;;;;;3.83;1.10;;;;;;;4.24;60.77;99660.03;4990395;28;20255;-45
2024/01/18 02:51:47;;;;;;;3.03;0.90;;;;;;;4.06;61.66;99664.00;4991106;28;20109;-47
2024/01/18 02:54:12;;;;;;;5.05;0.98;;;;;;;3.98;61.36;99664.69;4990642;28;20441;-45
2024/01/18 02:56:38;;;;;;;4.13;1.13;;;;;;;3.91;61.62;99668.84;4990053;28;20122;-45
2024/01/18 02:59:03;;;;;;;2.50;1.08;;;;;;;3.85;61.41;99671.28;4990255;28;20034;-44
2024/01/18 03:01:29;;;;;;;3.35;1.10;;;;;;;3.85;61.61;99675.56;4990210;28;20093;-49
2024/01/18 03:03:54;;;;;;;2.13;0.90;;;;;;;3.82;61.64;99675.53;4991021;28;20038;-46
2024/01/18 03:06:19;;;;;;;4.38;1.20;;;;;;;3.75;61.17;99671.06;4990042;28;20041;-49
2024/01/18 03:08:45;;;;;;;2.60;1.00;;;;;;;3.73;62.00;99668.44;4990772;28;20058;-46
2024/01/18 03:11:10;;;;;;;5.70;1.10;;;;;;;3.73;61.78;99667.56;4991426;28;20641;-45
2024/01/18 03:13:35;;;;;;;3.60;1.10;;;;;;;3.69;61.59;99682.13;4991309;28;20121;-47
2024/01/18 03:16:01;;;;;;;3.35;1.40;;;;;;;3.58;62.42;99671.59;4995944;28;20125;-45
2024/01/18 03:18:26;;;;;;;5.05;1.20;;;;;;;3.53;62.16;99683.50;4995833;28;20034;-44
2024/01/18 03:20:51;;;;;;;2.95;1.08;;;;;;;3.51;62.06;99685.16;4995880;28;20401;-45
2024/01/18 03:23:16;;;;;;;4.38;1.40;;;;;;;3.49;62.05;99685.94;4990787;28;20042;-45
2024/01/18 03:25:42;;;;;;;2.75;1.30;;;;;;;3.45;61.90;99684.16;4989580;28;20058;-48
2024/01/18 03:28:08;;;;;;;2.22;1.00;;;;;;;3.42;62.00;99687.50;4990012;28;20125;-47
2024/01/18 03:30:33;;;;;;;3.05;1.20;;;;;;;3.40;62.20;99683.19;4984269;28;20039;-44
2024/01/18 03:32:58;;;;;;;4.78;1.40;;;;;;;3.30;62.33;99701.81;4989154;28;20085;-44
2024/01/18 03:35:23;;;;;;;4.38;1.30;;;;;;;3.18;63.44;99697.25;4989464;28;20034;-45
2024/01/18 03:37:49;;;;;;;4.97;1.30;;;;;;;3.28;62.85;99693.22;4990339;28;20489;-44
2024/01/18 03:40:14;;;;;;;4.70;1.45;;;;;;;3.30;62.77;99702.69;4989984;28;20034;-47
2024/01/18 03:42:41;;;;;;;3.50;1.30;;;;;;;3.23;63.21;99698.25;4990219;28;20031;-44
2024/01/18 03:45:06;;;;;;;3.75;1.50;;;;;;;3.21;62.53;99694.75;4988881;28;20404;-44
2024/01/18 03:47:32;;;;;;;3.53;1.60;;;;;;;3.19;62.57;99691.28;4989719;28;20117;-44
2024/01/18 03:49:57;;;;;;;3.78;1.30;;;;;;;3.18;63.29;99690.41;4990011;28;20405;-44
2024/01/18 03:52:23;;;;;;;4.35;1.50;;;;;;;3.11;62.84;99695.38;4988701;28;20076;-45
2024/01/18 03:54:48;;;;;;;5.25;1.95;;;;;;;3.19;63.39;99702.44;4990394;28;20030;-44
2024/01/18 03:57:14;;;;;;;3.25;1.65;;;;;;;3.19;62.95;99704.16;4989812;28;20030;-45
2024/01/18 03:59:39;;;;;;;7.15;1.85;;;;;;;3.18;63.68;99707.56;4988076;28;20378;-47
2024/01/18 04:02:04;;;;;;;4.35;1.90;;;;;;;3.15;63.14;99704.91;4990130;28;20085;-43
2024/01/18 04:04:30;;;;;;;3.45;1.55;;;;;;;3.08;63.20;99709.03;4992880;28;20035;-46
2024/01/18 04:06:55;;;;;;;5.70;1.90;;;;;;;3.06;63.23;99702.97;4993162;28;20037;-44
2024/01/18 04:09:20;;;;;;;3.55;1.70;;;;;;;3.16;63.36;99704.09;4993117;28;20069;-47
2024/01/18 04:11:46;;;;;;;5.57;1.60;;;;;;;3.14;63.91;99701.47;4993735;28;20034;-46
2024/01/18 04:14:11;;;;;;;6.70;1.77;;;;;;;3.14;63.03;99698.91;4993419;28;20410;-44
2024/01/18 04:16:38;;;;;;;5.05;1.70;;;;;;;3.11;63.41;99709.09;4992537;28;20050;-44
2024/01/18 04:19:04;;;;;;;6.18;1.92;;;;;;;3.07;63.28;99711.56;4993643;28;20035;-45
2024/01/18 04:21:30;;;;;;;5.90;1.67;;;;;;;3.01;62.97;99714.88;4992896;28;20052;-47
2024/01/18 04:23:56;;;;;;;3.80;1.70;;;;;;;2.98;62.82;99711.38;4993163;28;20035;-45
2024/01/18 04:26:22;;;;;;;4.72;1.80;;;;;;;2.95;63.21;99719.88;4992379;28;20109;-44
2024/01/18 04:28:47;;;;;;;6.30;2.00;;;;;;;2.93;62.71;99718.94;4993575;28;20042;-44
2024/01/18 04:31:13;;;;;;;6.40;1.70;;;;;;;2.92;63.74;99719.81;4993120;28;20026;-43
2024/01/18 04:33:38;;;;;;;4.18;1.70;;;;;;;2.92;63.42;99726.66;4992464;28;20057;-43
2024/01/18 04:36:04;;;;;;;6.03;2.30;;;;;;;2.90;63.47;99721.47;4998104;28;20096;-45
2024/01/18 04:38:29;;;;;;;5.30;1.98;;;;;;;2.92;63.28;99739.53;4992971;28;20064;-45
2024/01/18 04:40:54;;;;;;;6.78;2.15;;;;;;;2.75;64.05;99737.38;4993530;28;20121;-47
2024/01/18 04:43:20;;;;;;;4.53;2.13;;;;;;;2.82;63.36;99751.28;4993294;28;20038;-45
2024/01/18 04:45:45;;;;;;;6.53;2.28;;;;;;;2.82;63.98;99747.00;4990833;28;20031;-45
2024/01/18 04:48:11;;;;;;;5.20;2.00;;;;;;;2.85;63.16;99747.09;4994336;28;20041;-47
2024/01/18 04:50:36;;;;;;;4.93;2.40;;;;;;;2.82;63.47;99746.13;4997466;28;20069;-46
2024/01/18 04:53:01;;;;;;;5.60;2.08;;;;;;;2.80;64.55;99746.09;4995797;28;20246;-45
2024/01/18 04:55:27;;;;;;;4.50;2.28;;;;;;;2.81;63.29;99745.25;4993258;28;20564;-45
2024/01/18 04:57:53;;;;;;;7.47;2.83;;;;;;;2.87;63.38;99752.25;4993288;28;20057;-45
2024/01/18 05:00:18;;;;;;;5.47;2.40;;;;;;;2.84;63.62;99747.03;4993391;28;20454;-45
2024/01/18 05:02:44;;;;;;;5.32;2.28;;;;;;;2.84;63.57;99747.03;4994018;28;20035;-47
2024/01/18 05:05:10;;;;;;;6.18;2.40;;;;;;;2.83;63.26;99750.44;4992579;28;20041;-44
2024/01/18 05:07:36;;;;;;;5.07;2.40;;;;;;;2.83;64.09;99758.16;4992932;28;20143;-44
2024/01/18 05:10:04;;;;;;;5.35;2.47;;;;;;;2.81;64.07;99762.38;4992740;28;20061;-45
2024/01/18 05:12:30;;;;;;;4.25;2.20;;;;;;;2.79;63.87;99764.94;4992825;28;20528;-47
2024/01/18 05:14:55;;;;;;;4.55;2.50;;;;;;;2.65;64.38;99771.41;4991946;28;20031;-44
2024/01/18 05:17:21;;;;;;;6.63;2.45;;;;;;;2.71;63.92;99769.00;4991815;28;20066;-47
2024/01/18 05:19:47;;;;;;;5.40;2.30;;;;;;;2.66;63.35;99773.16;4992594;28;20397;-45
2024/01/18 05:22:12;;;;;;;7.82;2.78;;;;;;;2.72;63.79;99781.06;4992704;28;20034;-46
2024/01/18 05:24:38;;;;;;;5.65;2.50;;;;;;;2.71;64.20;99781.88;4992271;28;20034;-46
2024/01/18 05:27:05;;;;;;;9.02;2.92;;;;;;;2.69;64.00;99785.22;4991922;28;20041;-44
2024/01/18 05:29:31;;;;;;;5.60;2.95;;;;;;;2.70;63.94;99795.56;4991784;28;20460;-46
2024/01/18 05:31:56;;;;;;;6.15;2.80;;;;;;;2.67;63.85;99789.47;4991201;28;20041;-44
2024/01/18 05:34:22;;;;;;;5.22;2.80;;;;;;;2.62;64.43;99798.78;4991614;28;20544;-45
2024/01/18 05:36:47;;;;;;;8.25;3.10;;;;;;;2.54;65.93;99802.81;4991609;28;20038;-44
2024/01/18 05:39:13;;;;;;;8.55;3.53;;;;;;;2.58;65.69;99802.94;4992000;28;20034;-44
2024/01/18 05:41:38;;;;;;;7.53;3.55;;;;;;;2.71;65.69;99801.59;4991423;28;20031;-45
2024/01/18 05:44:04;;;;;;;7.85;3.60;;;;;;;2.75;64.68;99806.84;4992003;28;20038;-45
2024/01/18 05:46:30;;;;;;;9.57;3.75;;;;;;;2.77;64.20;99804.31;4991014;28;20027;-46
2024/01/18 05:48:55;;;;;;;10.48;3.80;;;;;;;2.73;64.49;99808.53;4990811;28;20038;-46
2024/01/18 05:51:20;;;;;;;9.77;3.50;;;;;;;2.69;63.85;99811.84;4991716;28;20173;-45
2024/01/18 05:53:46;;;;;;;8.88;3.88;;;;;;;2.72;63.88;99806.78;4991871;28;20034;-50
2024/01/18 05:56:11;;;;;;;6.85;3.58;;;;;;;2.68;64.47;99812.69;4991053;28;20026;-44
2024/01/18 05:58:36;;;;;;;9.35;3.60;;;;;;;2.63;64.12;99811.66;4991335;28;20500;-45
2024/01/18 06:01:02;;;;;;;6.68;3.72;;;;;;;2.62;63.54;99812.53;4991668;28;20485;-43
2024/01/18 06:03:27;;;;;;;7.32;3.83;;;;;;;2.58;64.03;99812.38;4991421;28;20046;-44
2024/01/18 06:05:54;;;;;;;6.45;3.40;;;;;;;2.56;63.63;99819.19;4991755;28;20038;-47
2024/01/18 06:08:19;;;;;;;9.95;3.85;;;;;;;2.58;63.36;99827.81;4992279;28;20046;-45
2024/01/18 06:10:44;;;;;;;8.20;4.03;;;;;;;2.56;63.30;99829.47;4992351;28;20056;-45
2024/01/18 06:13:10;;;;;;;9.77;4.00;;;;;;;2.51;63.80;99820.72;4992339;28;20034;-44
2024/01/18 06:15:36;;;;;;;8.02;4.13;;;;;;;2.47;63.76;99830.06;4992244;28;20046;-43
2024/01/18 06:18:04;;;;;;;10.25;4.25;;;;;;;2.44;63.20;99835.13;4993453;28;20504;-44
2024/01/18 06:20:30;;;;;;;8.38;4.13;;;;;;;2.23;65.10;99839.66;4992584;28;20137;-44
2024/01/18 06:22:58;;;;;;;13.65;4.75;;;;;;;2.18;64.66;99836.94;4992822;28;20077;-44
2024/01/18 06:25:23;;;;;;;10.15;4.30;;;;;;;2.36;64.14;99841.75;4990623;28;20136;-43
2024/01/18 06:27:49;;;;;;;11.23;4.32;;;;;;;2.38;64.26;99842.66;4991353;28;20206;-45
2024/01/18 06:30:14;;;;;;;10.32;4.32;;;;;;;2.41;64.06;99855.63;4992225;28;20505;-45
2024/01/18 06:32:39;;;;;;;7.97;4.20;;;;;;;2.38;64.22;99851.25;4991514;28;20114;-44
2024/01/18 06:35:05;;;;;;;7.38;3.97;;;;;;;2.41;64.44;99847.91;4991135;28;20061;-45
2024/01/18 06:37:31;;;;;;;10.23;4.38;;;;;;;2.38;64.37;99848.66;4989974;28;20512;-45
2024/01/18 06:39:57;;;;;;;7.78;3.90;;;;;;;2.42;64.10;99857.38;4991165;28;20524;-43
2024/01/18 06:42:22;;;;;;;11.95;4.57;;;;;;;2.38;64.08;99858.97;4990283;28;20038;-43
2024/01/18 06:44:48;;;;;;;9.48;4.45;;;;;;;2.29;64.37;99871.56;4990717;28;20031;-46
2024/01/18 06:47:13;;;;;;;10.13;4.75;;;;;;;2.34;63.87;99871.69;4989079;28;20046;-44
2024/01/18 06:49:38;;;;;;;10.50;4.50;;;;;;;2.35;64.04;99874.31;4990612;28;20035;-44
2024/01/18 06:52:04;;;;;;;9.82;3.50;;;;;;;2.35;64.19;99879.47;4991121;28;20026;-45
2024/01/18 06:54:29;;;;;;;10.35;3.78;;;;;;;2.35;64.00;99878.59;4992331;28;20045;-45
2024/01/18 06:56:54;;;;;;;6.40;3.38;;;;;;;2.34;63.47;99880.28;4994807;28;20440;-47
2024/01/18 06:59:20;;;;;;;8.63;3.38;;;;;;;2.37;63.85;99885.53;4992854;28;20555;-44
2024/01/18 07:01:45;;;;;;;9.50;3.75;;;;;;;2.39;64.08;99890.69;4992486;28;20030;-45
2024/01/18 07:04:11;;;;;;;9.15;3.92;;;;;;;2.33;64.88;99900.81;4994558;28;20497;-44
2024/01/18 07:06:36;;;;;;;9.93;4.40;;;;;;;2.04;67.31;99905.06;4994033;28;20129;-45
2024/01/18 07:09:01;;;;;;;10.02;3.97;;;;;;;2.32;65.43;99906.78;4991767;28;20065;-45
2024/01/18 07:11:27;;;;;;;9.18;4.10;;;;;;;2.42;64.73;99908.81;4990348;28;20129;-49
2024/01/18 07:13:52;;;;;;;7.97;3.67;;;;;;;2.40;64.98;99911.34;4990177;28;20062;-44
2024/01/18 07:16:17;;;;;;;7.30;3.70;;;;;;;2.39;64.69;99913.84;4989940;28;20034;-44
2024/01/18 07:18:43;;;;;;;7.80;4.03;;;;;;;2.37;64.68;99903.53;4990773;28;20527;-48
2024/01/18 07:21:08;;;;;;;11.05;3.83;;;;;;;2.38;64.52;99909.53;4989688;28;20042;-45
2024/01/18 07:23:33;;;;;;;8.85;3.83;;;;;;;2.38;64.30;99912.09;4990694;28;20046;-48
2024/01/18 07:25:59;;;;;;;10.23;4.40;;;;;;;2.40;64.16;99921.63;4990770;28;20034;-47
2024/01/18 07:28:24;;;;;;;9.07;4.07;;;;;;;2.26;63.58;99925.47;4989968;28;20444;-46
2024/01/18 07:30:49;;;;;;;8.73;4.25;;;;;;;2.26;64.91;99928.03;4990118;28;20041;-44
2024/01/18 07:33:15;;;;;;;14.90;4.10;;;;;;;2.40;64.95;99931.91;4990547;28;20575;-44
2024/01/18 07:35:41;;;;;;;9.05;3.97;;;;;;;2.38;64.81;99936.13;4990413;28;20042;-44
2024/01/18 07:38:07;;;;;;;10.52;3.58;;;;;;;2.40;64.17;99931.03;4993217;28;20416;-47
2024/01/18 07:40:32;;;;;;;7.22;3.42;;;;;;;2.39;63.80;99942.16;4994639;28;20133;-45
2024/01/18 07:42:57;;;;;;;8.25;3.75;;;;;;;2.40;64.57;99941.31;4994921;28;20113;-45
2024/01/18 07:45:23;;;;;;;7.10;3.80;;;;;;;2.43;64.06;99950.03;4994206;28;20563;-45
2024/01/18 07:47:48;;;;;;;8.27;3.50;;;;;;;2.45;64.29;99942.34;4995137;28;20127;-48
2024/01/18 07:50:14;;;;;;;9.93;3.58;;;;;;;2.42;64.47;99952.53;4994859;28;20559;-45
2024/01/18 07:52:39;;;;;;;8.75;3.38;;;;;;;2.46;63.70;99954.38;4995113;28;20034;-48
2024/01/18 07:55:06;;;;;;;7.88;3.58;;;;;;;2.49;64.35;99948.47;4994701;28;20026;-45
2024/01/18 07:57:32;;;;;;;6.82;3.20;;;;;;;2.49;64.54;99949.34;4993100;28;20560;-45
2024/01/18 07:59:57;;;;;;;9.93;3.42;;;;;;;2.47;63.99;99965.53;4995249;28;20050;-46
2024/01/18 08:02:23;;;;;;;10.52;3.40;;;;;;;2.47;63.83;99969.00;4994711;28;20042;-45
2024/01/18 08:04:48;;;;;;;7.55;3.35;;;;;;;2.50;64.82;99966.50;4995191;28;20031;-44
2024/01/18 08:07:15;;;;;;;8.15;3.47;;;;;;;2.51;63.83;99970.81;4993155;28;20043;-45
2024/01/18 08:09:40;;;;;;;9.43;3.78;;;;;;;2.52;64.90;99974.28;4992840;28;20125;-45
2024/01/18 08:12:06;;;;;;;8.70;3.30;;;;;;;2.56;65.13;99981.28;4993623;28;20117;-49
2024/01/18 08:14:32;;;;;;;6.63;3.50;;;;;;;2.58;64.74;99987.31;4991343;28;20042;-49
2024/01/18 08:16:57;;;;;;;11.27;3.60;;;;;;;2.62;64.56;99986.63;4993142;28;20507;-45
2024/01/18 08:19:22;;;;;;;7.55;3.35;;;;;;;2.48;65.24;99993.91;4991941;28;20054;-45
2024/01/18 08:21:48;;;;;;;9.25;3.45;;;;;;;2.68;65.48;99995.41;4993344;28;20034;-48
2024/01/18 08:24:16;;;;;;;10.43;3.55;;;;;;;2.93;65.77;99999.56;4993345;28;20035;-43
2024/01/18 08:26:41;;;;;;;9.02;3.30;;;;;;;3.20;66.37;99997.78;4992599;28;20520;-48
2024/01/18 08:29:07;;;;;;;9.48;3.63;;;;;;;3.37;66.06;100005.13;4993232;28;20056;-44
2024/01/18 08:31:32;;;;;;;10.68;3.95;;;;;;;3.50;66.55;100009.78;4992752;28;20413;-47
2024/01/18 08:33:58;;;;;;;9.38;3.83;;;;;;;3.67;65.90;100006.84;4993246;28;20045;-45
2024/01/18 08:36:23;;;;;;;8.98;3.10;;;;;;;3.78;65.66;100016.59;4992112;28;20034;-50
2024/01/18 08:38:48;;;;;;;12.20;4.10;;;;;;;3.81;66.09;100025.25;4993339;28;20030;-45
2024/01/18 08:41:13;;;;;;;9.57;3.55;;;;;;;3.86;65.33;100033.97;4993468;28;20220;-45
2024/01/18 08:43:39;;;;;;;13.18;4.10;;;;;;;4.01;65.63;100036.09;4992750;28;20510;-46
2024/01/18 08:46:07;;;;;;;16.80;3.65;;;;;;;4.10;64.89;100041.47;4992757;28;20041;-45
2024/01/18 08:48:34;;;;;;;9.00;3.60;;;;;;;4.23;64.82;100040.09;4992310;28;20044;-47
2024/01/18 08:50:59;;;;;;;9.77;4.20;;;;;;;4.39;65.07;100037.94;4993281;28;20026;-49
2024/01/18 08:53:24;;;;;;;8.20;3.92;;;;;;;4.62;65.24;100045.38;4992549;28;20539;-45
2024/01/18 08:55:49;;;;;;;8.48;3.60;;;;;;;4.77;64.49;100037.97;4992386;28;20037;-47
2024/01/18 08:58:16;;;;;;;9.80;3.80;;;;;;;4.96;63.72;100041.84;4992762;28;20058;-45
2024/01/18 09:00:41;;;;;;;9.57;4.07;;;;;;;4.94;62.73;100039.22;4991765;28;20493;-45
2024/01/18 09:03:06;;;;;;;9.90;3.60;;;;;;;5.18;63.14;100047.53;4992816;28;20080;-42
2024/01/18 09:05:32;;;;;;;13.38;4.20;;;;;;;5.17;62.07;100053.53;4990036;28;20448;-50
2024/01/18 09:07:58;;;;;;;7.88;3.25;;;;;;;5.50;63.09;100066.28;4992345;28;20397;-45
2024/01/18 09:10:23;;;;;;;8.13;3.65;;;;;;;5.90;64.61;100074.88;4992180;28;20093;-45
2024/01/18 09:12:51;;;;;;;12.90;4.38;;;;;;;5.79;61.95;100090.19;4992868;28;20385;-45
2024/01/18 09:15:16;;;;;;;8.43;2.40;;;;;;;5.63;62.43;100106.19;4989900;28;20023;-46
2024/01/18 09:17:41;;;;;;;4.97;1.60;;;;;;;5.00;63.80;100128.94;4992125;28;20038;-44
2024/01/18 09:20:09;;;;;;;5.00;1.33;;;;;;;5.23;64.48;100120.88;4991240;28;20672;-46
2024/01/18 09:22:35;;;;;;;5.80;1.17;;;;;;;5.60;64.65;100122.53;4990396;28;20109;-48
2024/01/18 09:25:01;;;;;;;3.65;1.00;;;;;;;5.82;63.86;100129.00;4992163;28;20573;-46
2024/01/18 09:27:26;;;;;;;3.63;0.93;;;;;;;5.92;63.83;100130.97;4988905;28;20505;-48
2024/01/18 09:29:52;;;;;;;5.15;0.70;;;;;;;5.96;63.48;100134.50;4992456;28;20045;-44
2024/01/18 09:32:17;;;;;;;6.03;0.85;;;;;;;5.55;65.48;100123.28;4992086;28;20137;-47
2024/01/18 09:34:42;;;;;;;5.20;0.60;;;;;;;5.66;65.66;100129.56;4992655;28;20455;-47
2024/01/18 09:37:08;;;;;;;3.70;0.90;;;;;;;6.06;64.83;100137.31;4991903;28;20033;-46
2024/01/18 09:39:33;;;;;;;5.50;0.80;;;;;;;5.83;63.33;100142.81;4991526;28;20552;-51
2024/01/18 09:42:01;;;;;;;2.65;0.73;;;;;;;5.93;62.85;100156.00;4992466;28;20031;-45
2024/01/18 09:44:30;;;;;;;8.77;0.77;;;;;;;6.30;62.42;100157.59;4987581;28;20409;-46
2024/01/18 09:46:57;;;;;;;4.65;0.88;;;;;;;6.39;61.11;100162.97;4991232;28;20038;-47
2024/01/18 09:49:24;;;;;;;2.38;0.60;;;;;;;6.50;60.80;100158.84;4990872;28;20062;-45
2024/01/18 09:51:50;;;;;;;7.55;2.10;;;;;;;6.36;60.72;100164.63;4991585;28;20060;-49
2024/01/18 09:54:17;;;;;;;5.55;1.17;;;;;;;6.50;60.01;100168.34;4991732;28;20061;-48
2024/01/18 09:56:45;;;;;;;6.07;1.10;;;;;;;6.43;59.94;100174.25;4991103;28;20038;-46
2024/01/18 09:59:18;;;;;;;5.38;1.00;;;;;;;6.43;59.78;100180.28;4991541;28;20493;-48
2024/01/18 10:01:47;;;;;;;2.60;0.88;;;;;;;6.38;59.65;100188.81;4990715;28;20441;-45
2024/01/18 10:04:13;;;;;;;6.05;1.23;;;;;;;6.23;59.55;100186.78;4991981;28;20034;-43
2024/01/18 10:06:40;;;;;;;5.70;1.20;;;;;;;6.26;59.77;100188.59;4990945;28;20038;-45
2024/01/18 10:09:06;;;;;;;7.38;1.20;;;;;;;6.25;60.30;100194.59;4992293;28;20034;-44
2024/01/18 10:11:32;;;;;;;3.40;0.82;;;;;;;6.31;60.59;100199.91;4991775;28;20057;-45
2024/01/18 10:13:59;;;;;;;5.00;1.23;;;;;;;6.39;60.82;100206.97;4991864;28;20034;-44
2024/01/18 10:16:28;;;;;;;3.80;1.20;;;;;;;6.42;60.69;100207.03;4990367;28;20046;-43
2024/01/18 10:18:58;;;;;;;6.25;1.30;;;;;;;6.48;60.68;100216.63;4990618;28;20433;-48
2024/01/18 10:21:23;;;;;;;4.35;1.10;;;;;;;6.54;61.02;100219.34;4990297;28;20552;-45
2024/01/18 10:23:51;;;;;;;6.93;1.60;;;;;;;6.63;60.76;100216.94;4993261;28;20093;-49
2024/01/18 10:26:17;;;;;;;5.78;1.55;;;;;;;6.58;61.36;100230.63;4991388;28;20030;-45
2024/01/18 10:28:42;;;;;;;8.82;1.88;;;;;;;6.81;60.62;100225.03;4990519;28;20374;-46
2024/01/18 10:31:08;;;;;;;6.18;1.08;;;;;;;6.97;60.40;100235.66;4991231;28;20045;-49
2024/01/18 10:33:33;;;;;;;4.60;0.90;;;;;;;6.89;59.80;100227.78;4991013;28;20092;-45
2024/01/18 10:36:00;;;;;;;3.70;0.73;;;;;;;7.14;58.94;100235.09;4990942;28;20031;-46
2024/01/18 10:38:35;;;;;;;4.45;0.70;;;;;;;7.33;58.61;100231.09;4990694;28;20567;-43
2024/01/18 10:41:02;;;;;;;5.82;0.80;;;;;;;7.37;57.90;100239.81;4991521;28;20096;-43
2024/01/18 10:43:31;;;;;;;5.22;0.80;;;;;;;7.42;58.31;100248.53;4990847;28;20049;-45
2024/01/18 10:45:57;;;;;;;8.88;0.88;;;;;;;7.44;58.43;100265.00;4989496;28;20031;-44
2024/01/18 10:48:22;;;;;;;5.20;1.10;;;;;;;7.63;58.85;100259.22;4992043;28;20181;-47
2024/01/18 10:50:51;;;;;;;3.83;1.00;;;;;;;7.39;59.23;100262.31;4992203;28;20046;-45
2024/01/18 10:53:17;;;;;;;3.35;0.70;;;;;;;7.52;58.94;100261.66;4992441;28;20525;-49
2024/01/18 10:55:43;;;;;;;3.60;0.70;;;;;;;7.81;58.21;100256.06;4993338;28;20034;-44
2024/01/18 10:58:08;;;;;;;8.27;0.88;;;;;;;7.73;58.48;100266.31;4991985;28;20073;-46
2024/01/18 11:00:34;;;;;;;6.00;0.90;;;;;;;8.06;56.85;100258.13;4991627;28;20033;-44
2024/01/18 11:03:00;;;;;;;8.70;1.17;;;;;;;7.85;56.99;100258.72;4991404;28;20042;-43
2024/01/18 11:05:27;;;;;;;5.07;0.93;;;;;;;8.43;56.35;100262.09;4988401;28;20038;-47
2024/01/18 11:07:53;;;;;;;4.35;0.60;;;;;;;8.52;54.93;100268.31;4990176;28;20165;-43
2024/01/18 11:10:18;;;;;;;4.25;0.70;;;;;;;8.52;55.24;100270.91;4989544;28;20117;-44
2024/01/18 11:12:49;;;;;;;3.38;0.60;;;;;;;9.22;53.49;100273.34;4993601;28;20493;-46
2024/01/18 11:15:17;;;;;;;2.08;0.50;;;;;;;9.43;52.82;100283.09;4993872;28;20032;-42
2024/01/18 11:17:46;;;;;;;1.27;0.40;;;;;;;9.38;53.08;100305.59;4994362;28;20030;-44
2024/01/18 11:20:13;;;;;;;2.97;0.73;;;;;;;8.17;56.46;100315.41;4994243;28;20053;-47
2024/01/18 11:22:39;;;;;;;0.80;0.40;;;;;;;7.40;58.67;100331.47;4993868;28;20411;-46
2024/01/18 11:25:07;;;;;;;0.40;0.30;;;;;;;7.03;59.75;100331.66;4993082;28;20515;-43
2024/01/18 11:27:37;;;;;;;2.85;0.55;;;;;;;7.19;59.56;100324.22;4993230;28;20409;-47
2024/01/18 11:30:23;;;;;;;0.93;0.50;;;;;;;6.84;61.59;100327.84;4994091;28;20524;-45